createdAt,value
2016-12-28T00:00:23.394Z,1029.2
2016-12-28T00:01:33.671Z,1029.24
2016-12-28T00:02:43.310Z,1029.29
2016-12-28T00:03:53.252Z,1029.27
2016-12-28T00:05:03.227Z,1029.21
2016-12-28T00:06:13.499Z,1029.19
2016-12-28T00:07:23.761Z,1029.16
2016-12-28T00:08:34.034Z,1029.28
2016-12-28T00:09:44.298Z,1029.24
2016-12-28T00:10:54.574Z,1029.29
2016-12-28T00:12:04.222Z,1029.34
2016-12-28T00:13:13.870Z,1029.34
2016-12-28T00:14:24.142Z,1029.41
2016-12-28T00:15:33.816Z,1029.34
2016-12-28T00:16:43.778Z,1029.39
2016-12-28T00:17:53.732Z,1029.4
2016-12-28T00:19:04.009Z,1029.39
2016-12-28T00:20:13.973Z,1029.39
2016-12-28T00:21:23.928Z,1029.29
2016-12-28T00:22:33.874Z,1029.34
2016-12-28T00:23:43.842Z,1029.4
2016-12-28T00:24:54.104Z,1029.41
2016-12-28T00:26:04.375Z,1029.43
2016-12-28T00:27:14.344Z,1029.42
2016-12-28T00:28:24.622Z,1029.4
2016-12-28T00:29:34.899Z,1029.38
2016-12-28T00:30:45.162Z,1029.4
2016-12-28T00:31:55.457Z,1029.44
2016-12-28T00:33:05.403Z,1029.48
2016-12-28T00:34:15.044Z,1029.49
2016-12-28T00:35:25.332Z,1029.48
2016-12-28T00:36:35.582Z,1029.46
2016-12-28T00:37:45.531Z,1029.49
2016-12-28T00:38:55.499Z,1029.49
2016-12-28T00:40:05.476Z,1029.49
2016-12-28T00:41:15.460Z,1029.53
2016-12-28T00:42:25.412Z,1029.51
2016-12-28T00:43:35.371Z,1029.46
2016-12-28T00:44:45.015Z,1029.52
2016-12-28T00:45:55.265Z,1029.49
2016-12-28T00:47:05.531Z,1029.48
2016-12-28T00:48:15.787Z,1029.47
2016-12-28T00:49:25.451Z,1029.48
2016-12-28T00:50:35.708Z,1029.49
2016-12-28T00:51:45.975Z,1029.57
2016-12-28T00:52:55.608Z,1029.59
2016-12-28T00:54:05.864Z,1029.58
2016-12-28T00:55:15.825Z,1029.6
2016-12-28T00:56:25.790Z,1029.66
2016-12-28T00:57:36.069Z,1029.68
2016-12-28T00:58:46.351Z,1029.69
2016-12-28T00:59:56.616Z,1029.68
2016-12-28T01:01:06.569Z,1029.7
2016-12-28T01:02:16.536Z,1029.69
2016-12-28T01:03:26.485Z,1029.7
2016-12-28T01:04:36.750Z,1029.68
2016-12-28T01:05:46.699Z,1029.72
2016-12-28T01:06:56.971Z,1029.77
2016-12-28T01:08:06.927Z,1029.71
2016-12-28T01:09:17.183Z,1029.75
2016-12-28T01:10:27.189Z,1029.78
2016-12-28T01:11:37.460Z,1029.77
2016-12-28T01:12:47.723Z,1029.83
2016-12-28T01:13:58.091Z,1029.83
2016-12-28T01:15:08.068Z,1029.85
2016-12-28T01:16:17.707Z,1029.85
2016-12-28T01:17:27.974Z,1029.85
2016-12-28T01:18:38.235Z,1029.86
2016-12-28T01:19:48.501Z,1029.89
2016-12-28T01:20:58.149Z,1029.91
2016-12-28T01:22:08.116Z,1029.93
2016-12-28T01:23:18.385Z,1029.98
2016-12-28T01:24:28.339Z,1029.98
2016-12-28T01:25:38.302Z,1030
2016-12-28T01:26:47.953Z,1029.98
2016-12-28T01:27:57.915Z,1029.94
2016-12-28T01:29:08.181Z,1029.93
2016-12-28T01:30:17.823Z,1029.94
2016-12-28T01:31:28.085Z,1029.92
2016-12-28T01:32:38.040Z,1029.98
2016-12-28T01:33:47.675Z,1029.99
2016-12-28T01:34:57.966Z,1030
2016-12-28T01:36:08.228Z,1030.05
2016-12-28T01:37:17.871Z,1030.11
2016-12-28T01:38:28.168Z,1030.18
2016-12-28T01:39:38.126Z,1030.18
2016-12-28T01:40:47.463Z,1030.23
2016-12-28T01:41:57.102Z,1030.25
2016-12-28T01:43:07.054Z,1030.3
2016-12-28T01:44:17.028Z,1030.24
2016-12-28T01:45:26.981Z,1030.28
2016-12-28T01:46:36.619Z,1030.25
2016-12-28T01:47:46.270Z,1030.25
2016-12-28T01:48:55.912Z,1030.21
2016-12-28T01:50:06.187Z,1030.21
2016-12-28T01:51:16.139Z,1030.27
2016-12-28T01:52:25.767Z,1030.23
2016-12-28T01:53:35.716Z,1030.28
2016-12-28T01:54:45.675Z,1030.24
2016-12-28T01:55:55.943Z,1030.21
2016-12-28T01:57:05.592Z,1030.19
2016-12-28T01:58:15.543Z,1030.2
2016-12-28T01:59:25.808Z,1030.28
2016-12-28T02:00:36.103Z,1030.25
2016-12-28T02:01:46.058Z,1030.26
2016-12-28T02:02:56.319Z,1030.24
2016-12-28T02:04:06.269Z,1030.26
2016-12-28T02:05:16.227Z,1030.26
2016-12-28T02:06:26.492Z,1030.29
2016-12-28T02:07:36.442Z,1030.28
2016-12-28T02:08:46.395Z,1030.3
2016-12-28T02:09:56.659Z,1030.28
2016-12-28T02:11:06.924Z,1030.33
2016-12-28T02:12:16.869Z,1030.33
2016-12-28T02:13:26.822Z,1030.33
2016-12-28T02:14:36.774Z,1030.3
2016-12-28T02:15:47.327Z,1030.32
2016-12-28T02:16:57.585Z,1030.31
2016-12-28T02:18:07.241Z,1030.31
2016-12-28T02:19:17.194Z,1030.33
2016-12-28T02:20:27.148Z,1030.35
2016-12-28T02:21:36.485Z,1030.36
2016-12-28T02:22:46.431Z,1030.33
2016-12-28T02:23:56.690Z,1030.35
2016-12-28T02:25:06.328Z,1030.35
2016-12-28T02:26:16.585Z,1030.33
2016-12-28T02:27:26.869Z,1030.33
2016-12-28T02:28:36.184Z,1030.41
2016-12-28T02:29:46.449Z,1030.4
2016-12-28T02:30:56.389Z,1030.44
2016-12-28T02:32:06.340Z,1030.42
2016-12-28T02:33:16.291Z,1030.41
2016-12-28T02:34:25.937Z,1030.42
2016-12-28T02:35:35.888Z,1030.38
2016-12-28T02:36:46.170Z,1030.39
2016-12-28T02:37:55.803Z,1030.46
2016-12-28T02:39:06.061Z,1030.41
2016-12-28T02:40:16.009Z,1030.42
2016-12-28T02:41:26.271Z,1030.4
2016-12-28T02:42:35.913Z,1030.41
2016-12-28T02:43:45.253Z,1030.38
2016-12-28T02:44:55.518Z,1030.37
2016-12-28T02:46:05.476Z,1030.36
2016-12-28T02:47:15.741Z,1030.4
2016-12-28T02:48:25.694Z,1030.38
2016-12-28T02:49:35.950Z,1030.39
2016-12-28T02:50:45.585Z,1030.43
2016-12-28T02:51:55.536Z,1030.48
2016-12-28T02:53:05.168Z,1030.56
2016-12-28T02:54:15.113Z,1030.55
2016-12-28T02:55:25.059Z,1030.5
2016-12-28T02:56:35.318Z,1030.47
2016-12-28T02:57:45.276Z,1030.44
2016-12-28T02:58:54.592Z,1030.42
2016-12-28T03:00:04.230Z,1030.47
2016-12-28T03:01:13.871Z,1030.49
2016-12-28T03:02:24.117Z,1030.46
2016-12-28T03:03:34.370Z,1030.49
2016-12-28T03:04:44.321Z,1030.47
2016-12-28T03:05:54.260Z,1030.5
2016-12-28T03:07:03.902Z,1030.5
2016-12-28T03:08:14.186Z,1030.54
2016-12-28T03:09:23.815Z,1030.56
2016-12-28T03:10:33.763Z,1030.48
2016-12-28T03:11:43.709Z,1030.48
2016-12-28T03:12:53.965Z,1030.46
2016-12-28T03:14:04.214Z,1030.39
2016-12-28T03:15:14.216Z,1030.41
2016-12-28T03:16:24.505Z,1030.36
2016-12-28T03:17:34.476Z,1030.44
2016-12-28T03:18:44.431Z,1030.41
2016-12-28T03:19:54.370Z,1030.36
2016-12-28T03:21:04.655Z,1030.4
2016-12-28T03:22:14.613Z,1030.33
2016-12-28T03:23:24.573Z,1030.37
2016-12-28T03:24:34.202Z,1030.25
2016-12-28T03:25:44.157Z,1030.24
2016-12-28T03:26:53.796Z,1030.18
2016-12-28T03:28:03.754Z,1030.2
2016-12-28T03:29:13.691Z,1030.19
2016-12-28T03:30:23.646Z,1030.25
2016-12-28T03:31:33.623Z,1030.27
2016-12-28T03:32:43.270Z,1030.26
2016-12-28T03:33:53.882Z,1030.28
2016-12-28T03:35:04.141Z,1030.28
2016-12-28T03:36:14.403Z,1030.38
2016-12-28T03:37:24.041Z,1030.32
2016-12-28T03:38:34.297Z,1030.34
2016-12-28T03:39:44.555Z,1030.31
2016-12-28T03:40:54.803Z,1030.36
2016-12-28T03:42:04.748Z,1030.34
2016-12-28T03:43:14.691Z,1030.4
2016-12-28T03:44:24.947Z,1030.4
2016-12-28T03:45:35.211Z,1030.45
2016-12-28T03:46:44.540Z,1030.51
2016-12-28T03:47:54.486Z,1030.46
2016-12-28T03:49:04.121Z,1030.47
2016-12-28T03:50:13.756Z,1030.5
2016-12-28T03:51:24.025Z,1030.51
2016-12-28T03:52:34.290Z,1030.49
2016-12-28T03:53:44.549Z,1030.57
2016-12-28T03:54:54.818Z,1030.53
2016-12-28T03:56:05.086Z,1030.61
2016-12-28T03:57:15.352Z,1030.61
2016-12-28T03:58:25.609Z,1030.62
2016-12-28T03:59:35.883Z,1030.62
2016-12-28T04:00:46.146Z,1030.72
2016-12-28T04:01:56.399Z,1030.72
2016-12-28T04:03:06.665Z,1030.72
2016-12-28T04:04:16.306Z,1030.74
2016-12-28T04:05:25.948Z,1030.74
2016-12-28T04:06:36.204Z,1030.79
2016-12-28T04:07:45.861Z,1030.8
2016-12-28T04:08:55.826Z,1030.74
2016-12-28T04:10:05.777Z,1030.78
2016-12-28T04:11:16.030Z,1030.77
2016-12-28T04:12:26.283Z,1030.82
2016-12-28T04:13:36.533Z,1030.77
2016-12-28T04:14:46.479Z,1030.79
2016-12-28T04:15:56.741Z,1030.78
2016-12-28T04:17:06.697Z,1030.76
2016-12-28T04:18:16.748Z,1030.72
2016-12-28T04:19:27.004Z,1030.74
2016-12-28T04:20:37.269Z,1030.79
2016-12-28T04:21:47.534Z,1030.78
2016-12-28T04:22:57.796Z,1030.86
2016-12-28T04:24:08.063Z,1030.77
2016-12-28T04:25:17.703Z,1030.77
2016-12-28T04:26:27.947Z,1030.73
2016-12-28T04:27:37.906Z,1030.73
2016-12-28T04:28:48.178Z,1030.69
2016-12-28T04:29:57.825Z,1030.67
2016-12-28T04:31:08.092Z,1030.66
2016-12-28T04:32:18.350Z,1030.64
2016-12-28T04:33:28.600Z,1030.7
2016-12-28T04:34:38.562Z,1030.67
2016-12-28T04:35:48.504Z,1030.66
2016-12-28T04:36:58.766Z,1030.72
2016-12-28T04:38:09.016Z,1030.79
2016-12-28T04:39:19.287Z,1030.77
2016-12-28T04:40:29.544Z,1030.83
2016-12-28T04:41:39.812Z,1030.9
2016-12-28T04:42:49.752Z,1030.86
2016-12-28T04:43:59.995Z,1030.92
2016-12-28T04:45:10.258Z,1030.87
2016-12-28T04:46:20.213Z,1030.89
2016-12-28T04:47:29.854Z,1030.88
2016-12-28T04:48:39.800Z,1030.83
2016-12-28T04:49:49.437Z,1030.87
2016-12-28T04:50:59.705Z,1030.84
2016-12-28T04:52:09.662Z,1030.89
2016-12-28T04:53:19.304Z,1030.88
2016-12-28T04:54:29.566Z,1030.89
2016-12-28T04:55:39.211Z,1030.9
2016-12-28T04:56:49.163Z,1030.9
2016-12-28T04:57:59.419Z,1030.91
2016-12-28T04:59:09.365Z,1030.94
2016-12-28T05:00:18.709Z,1031.01
2016-12-28T05:01:28.984Z,1031.02
2016-12-28T05:02:39.253Z,1031
2016-12-28T05:03:49.195Z,1031.05
2016-12-28T05:04:59.175Z,1031.12
2016-12-28T05:06:09.150Z,1031.1
2016-12-28T05:07:19.097Z,1031.12
2016-12-28T05:08:29.039Z,1031.2
2016-12-28T05:09:38.991Z,1031.17
2016-12-28T05:10:48.948Z,1031.21
2016-12-28T05:11:59.221Z,1031.21
2016-12-28T05:13:09.480Z,1031.17
2016-12-28T05:14:19.423Z,1031.17
2016-12-28T05:15:28.758Z,1031.14
2016-12-28T05:16:39.024Z,1031.15
2016-12-28T05:17:48.966Z,1031.18
2016-12-28T05:18:58.918Z,1031.18
2016-12-28T05:20:09.178Z,1031.22
2016-12-28T05:21:19.124Z,1031.23
2016-12-28T05:22:29.076Z,1031.28
2016-12-28T05:23:38.711Z,1031.34
2016-12-28T05:24:48.961Z,1031.31
2016-12-28T05:25:58.907Z,1031.35
2016-12-28T05:27:08.911Z,1031.37
2016-12-28T05:28:19.170Z,1031.41
2016-12-28T05:29:28.824Z,1031.41
2016-12-28T05:30:38.784Z,1031.47
2016-12-28T05:31:48.736Z,1031.51
2016-12-28T05:32:58.684Z,1031.47
2016-12-28T05:34:08.941Z,1031.47
2016-12-28T05:35:19.200Z,1031.53
2016-12-28T05:36:29.491Z,1031.58
2016-12-28T05:37:39.455Z,1031.6
2016-12-28T05:38:49.101Z,1031.61
2016-12-28T05:39:59.048Z,1031.63
2016-12-28T05:41:08.990Z,1031.58
2016-12-28T05:42:19.246Z,1031.58
2016-12-28T05:43:29.499Z,1031.57
2016-12-28T05:44:39.128Z,1031.49
2016-12-28T05:45:49.333Z,1031.54
2016-12-28T05:46:58.662Z,1031.49
2016-12-28T05:48:08.926Z,1031.57
2016-12-28T05:49:18.870Z,1031.55
2016-12-28T05:50:28.496Z,1031.58
2016-12-28T05:51:38.445Z,1031.62
2016-12-28T05:52:48.705Z,1031.6
2016-12-28T05:53:58.647Z,1031.59
2016-12-28T05:55:08.600Z,1031.62
2016-12-28T05:56:18.863Z,1031.66
2016-12-28T05:57:29.125Z,1031.66
2016-12-28T05:58:39.087Z,1031.7
2016-12-28T05:59:49.356Z,1031.73
2016-12-28T06:00:59.628Z,1031.72
2016-12-28T06:02:09.581Z,1031.69
2016-12-28T06:03:19.533Z,1031.65
2016-12-28T06:04:29.776Z,1031.64
2016-12-28T06:05:40.043Z,1031.57
2016-12-28T06:06:49.681Z,1031.6
2016-12-28T06:07:59.010Z,1031.6
2016-12-28T06:09:08.968Z,1031.62
2016-12-28T06:10:18.926Z,1031.65
2016-12-28T06:11:28.880Z,1031.62
2016-12-28T06:12:39.145Z,1031.71
2016-12-28T06:13:49.414Z,1031.66
2016-12-28T06:14:59.062Z,1031.69
2016-12-28T06:16:09.325Z,1031.61
2016-12-28T06:17:19.280Z,1031.62
2016-12-28T06:18:29.240Z,1031.62
2016-12-28T06:19:39.431Z,1031.67
2016-12-28T06:20:49.690Z,1031.75
2016-12-28T06:21:59.988Z,1031.75
2016-12-28T06:23:10.239Z,1031.79
2016-12-28T06:24:20.536Z,1031.77
2016-12-28T06:25:30.169Z,1031.8
2016-12-28T06:26:40.422Z,1031.81
2016-12-28T06:27:50.377Z,1031.8
2016-12-28T06:29:00.316Z,1031.82
2016-12-28T06:30:10.278Z,1031.82
2016-12-28T06:31:20.224Z,1031.83
2016-12-28T06:32:30.179Z,1031.87
2016-12-28T06:33:40.128Z,1031.89
2016-12-28T06:34:50.080Z,1031.9
2016-12-28T06:36:00.035Z,1031.94
2016-12-28T06:37:10.039Z,1031.98
2016-12-28T06:38:20.036Z,1031.98
2016-12-28T06:39:29.981Z,1032
2016-12-28T06:40:39.924Z,1032.02
2016-12-28T06:41:50.183Z,1032.01
2016-12-28T06:42:59.843Z,1031.96
2016-12-28T06:44:10.147Z,1031.99
2016-12-28T06:45:20.118Z,1031.98
2016-12-28T06:46:30.073Z,1031.96
2016-12-28T06:47:40.346Z,1031.99
2016-12-28T06:48:50.312Z,1031.98
2016-12-28T06:50:00.262Z,1031.96
2016-12-28T06:51:10.227Z,1032
2016-12-28T06:52:20.499Z,1032.06
2016-12-28T06:53:30.447Z,1032.08
2016-12-28T06:54:40.694Z,1032.11
2016-12-28T06:55:50.966Z,1032.17
2016-12-28T06:57:01.247Z,1032.13
2016-12-28T06:58:10.901Z,1032.16
2016-12-28T06:59:21.160Z,1032.13
2016-12-28T07:00:31.423Z,1032.13
2016-12-28T07:01:41.692Z,1032.14
2016-12-28T07:02:51.644Z,1032.18
2016-12-28T07:04:01.286Z,1032.1
2016-12-28T07:05:11.231Z,1032.1
2016-12-28T07:06:21.206Z,1032.13
2016-12-28T07:07:31.471Z,1032.11
2016-12-28T07:08:41.441Z,1032.15
2016-12-28T07:09:51.094Z,1032.19
2016-12-28T07:11:01.056Z,1032.2
2016-12-28T07:12:10.706Z,1032.24
2016-12-28T07:13:20.360Z,1032.27
2016-12-28T07:14:30.626Z,1032.29
2016-12-28T07:15:40.898Z,1032.31
2016-12-28T07:16:50.844Z,1032.32
2016-12-28T07:18:00.783Z,1032.35
2016-12-28T07:19:11.042Z,1032.36
2016-12-28T07:20:21.009Z,1032.34
2016-12-28T07:21:30.958Z,1032.32
2016-12-28T07:22:40.600Z,1032.37
2016-12-28T07:23:50.562Z,1032.36
2016-12-28T07:25:00.517Z,1032.39
2016-12-28T07:26:10.171Z,1032.42
2016-12-28T07:27:20.129Z,1032.46
2016-12-28T07:28:30.392Z,1032.45
2016-12-28T07:29:40.648Z,1032.5
2016-12-28T07:30:50.914Z,1032.51
2016-12-28T07:32:00.891Z,1032.52
2016-12-28T07:33:10.539Z,1032.52
2016-12-28T07:34:19.864Z,1032.53
2016-12-28T07:35:30.125Z,1032.57
2016-12-28T07:36:40.087Z,1032.53
2016-12-28T07:37:49.732Z,1032.56
2016-12-28T07:38:59.697Z,1032.57
2016-12-28T07:40:09.040Z,1032.58
2016-12-28T07:41:18.375Z,1032.59
2016-12-28T07:42:28.634Z,1032.58
2016-12-28T07:43:38.900Z,1032.62
2016-12-28T07:44:49.175Z,1032.67
2016-12-28T07:45:59.448Z,1032.72
2016-12-28T07:47:09.713Z,1032.75
2016-12-28T07:48:19.363Z,1032.8
2016-12-28T07:49:29.316Z,1032.77
2016-12-28T07:50:38.330Z,1032.79
2016-12-28T07:51:48.279Z,1032.81
2016-12-28T07:52:58.227Z,1032.82
2016-12-28T07:54:08.201Z,1032.81
2016-12-28T07:55:18.150Z,1032.87
2016-12-28T07:56:28.122Z,1032.87
2016-12-28T07:57:38.064Z,1032.89
2016-12-28T07:58:48.322Z,1032.88
2016-12-28T07:59:58.591Z,1032.89
2016-12-28T08:01:08.546Z,1032.92
2016-12-28T08:02:18.805Z,1032.88
2016-12-28T08:03:28.756Z,1032.93
2016-12-28T08:04:38.706Z,1032.94
2016-12-28T08:05:48.996Z,1032.92
2016-12-28T08:06:59.258Z,1032.95
2016-12-28T08:08:09.204Z,1032.97
2016-12-28T08:09:18.222Z,1032.98
2016-12-28T08:10:28.477Z,1033.03
2016-12-28T08:11:38.750Z,1033
2016-12-28T08:12:49.021Z,1033.06
2016-12-28T08:13:58.686Z,1033
2016-12-28T08:15:08.941Z,1033.01
2016-12-28T08:16:19.270Z,1032.99
2016-12-28T08:17:29.238Z,1033.01
2016-12-28T08:18:38.882Z,1032.98
2016-12-28T08:19:49.142Z,1032.99
2016-12-28T08:20:59.103Z,1032.97
2016-12-28T08:22:09.362Z,1032.99
2016-12-28T08:23:19.328Z,1032.99
2016-12-28T08:24:29.586Z,1033.03
2016-12-28T08:25:39.554Z,1033.04
2016-12-28T08:26:49.502Z,1033.09
2016-12-28T08:27:59.448Z,1033.06
2016-12-28T08:29:08.782Z,1033.08
2016-12-28T08:30:18.727Z,1033.05
2016-12-28T08:31:28.995Z,1033.06
2016-12-28T08:32:39.264Z,1033.13
2016-12-28T08:33:49.225Z,1033.07
2016-12-28T08:34:59.188Z,1033.03
2016-12-28T08:36:09.464Z,1033.06
2016-12-28T08:37:19.732Z,1033.08
2016-12-28T08:38:29.998Z,1033.08
2016-12-28T08:39:40.270Z,1033.06
2016-12-28T08:40:50.215Z,1033.08
2016-12-28T08:41:59.850Z,1033.03
2016-12-28T08:43:09.798Z,1033.06
2016-12-28T08:44:19.478Z,1033.09
2016-12-28T08:45:29.414Z,1033.1
2016-12-28T08:46:39.369Z,1033.15
2016-12-28T08:47:49.647Z,1033.1
2016-12-28T08:48:59.615Z,1033.13
2016-12-28T08:50:09.589Z,1033.16
2016-12-28T08:51:19.854Z,1033.15
2016-12-28T08:52:30.139Z,1033.18
2016-12-28T08:53:40.094Z,1033.28
2016-12-28T08:54:50.040Z,1033.28
2016-12-28T08:56:00.311Z,1033.3
2016-12-28T08:57:10.564Z,1033.28
2016-12-28T08:58:20.522Z,1033.34
2016-12-28T08:59:30.793Z,1033.37
2016-12-28T09:00:40.761Z,1033.37
2016-12-28T09:01:51.030Z,1033.33
2016-12-28T09:03:00.693Z,1033.39
2016-12-28T09:04:10.936Z,1033.33
2016-12-28T09:05:21.195Z,1033.37
2016-12-28T09:06:31.464Z,1033.36
2016-12-28T09:07:41.716Z,1033.41
2016-12-28T09:08:51.364Z,1033.45
2016-12-28T09:10:01.319Z,1033.48
2016-12-28T09:11:10.966Z,1033.49
2016-12-28T09:12:20.927Z,1033.5
2016-12-28T09:13:30.568Z,1033.51
2016-12-28T09:14:40.831Z,1033.55
2016-12-28T09:15:51.104Z,1033.53
2016-12-28T09:17:01.059Z,1033.52
2016-12-28T09:18:11.026Z,1033.51
2016-12-28T09:19:21.294Z,1033.51
2016-12-28T09:20:31.288Z,1033.51
2016-12-28T09:21:41.248Z,1033.5
2016-12-28T09:22:51.200Z,1033.55
2016-12-28T09:24:01.153Z,1033.55
2016-12-28T09:25:11.424Z,1033.56
2016-12-28T09:26:21.395Z,1033.56
2016-12-28T09:27:31.341Z,1033.53
2016-12-28T09:28:41.629Z,1033.51
2016-12-28T09:29:50.966Z,1033.57
2016-12-28T09:31:01.235Z,1033.56
2016-12-28T09:32:11.496Z,1033.5
2016-12-28T09:33:21.471Z,1033.5
2016-12-28T09:34:31.426Z,1033.51
2016-12-28T09:35:41.688Z,1033.45
2016-12-28T09:36:51.640Z,1033.47
2016-12-28T09:38:01.906Z,1033.45
2016-12-28T09:39:11.864Z,1033.44
2016-12-28T09:40:21.515Z,1033.49
2016-12-28T09:41:31.783Z,1033.49
2016-12-28T09:42:41.738Z,1033.45
2016-12-28T09:43:51.690Z,1033.49
2016-12-28T09:45:01.640Z,1033.51
2016-12-28T09:46:11.923Z,1033.5
2016-12-28T09:47:22.176Z,1033.48
2016-12-28T09:48:32.428Z,1033.49
2016-12-28T09:49:42.060Z,1033.49
2016-12-28T09:50:52.031Z,1033.52
2016-12-28T09:52:01.980Z,1033.55
2016-12-28T09:53:11.615Z,1033.55
2016-12-28T09:54:21.885Z,1033.6
2016-12-28T09:55:31.852Z,1033.55
2016-12-28T09:56:42.157Z,1033.54
2016-12-28T09:57:52.431Z,1033.55
2016-12-28T09:59:02.089Z,1033.52
2016-12-28T10:00:12.069Z,1033.5
2016-12-28T10:01:22.070Z,1033.56
2016-12-28T10:02:32.326Z,1033.56
2016-12-28T10:03:42.594Z,1033.59
2016-12-28T10:04:52.563Z,1033.59
2016-12-28T10:06:02.825Z,1033.6
2016-12-28T10:07:12.844Z,1033.6
2016-12-28T10:08:22.800Z,1033.61
2016-12-28T10:09:32.441Z,1033.62
2016-12-28T10:10:42.402Z,1033.64
2016-12-28T10:11:52.358Z,1033.7
2016-12-28T10:13:02.639Z,1033.68
2016-12-28T10:14:12.908Z,1033.75
2016-12-28T10:15:22.864Z,1033.77
2016-12-28T10:16:32.819Z,1033.73
2016-12-28T10:17:42.800Z,1033.78
2016-12-28T10:18:52.154Z,1033.75
2016-12-28T10:20:01.816Z,1033.74
2016-12-28T10:21:11.769Z,1033.76
2016-12-28T10:22:21.734Z,1033.79
2016-12-28T10:23:31.993Z,1033.8
2016-12-28T10:24:41.948Z,1033.76
2016-12-28T10:25:51.910Z,1033.73
2016-12-28T10:27:01.862Z,1033.71
2016-12-28T10:28:11.812Z,1033.75
2016-12-28T10:29:22.096Z,1033.81
2016-12-28T10:30:32.345Z,1033.82
2016-12-28T10:31:42.010Z,1033.78
2016-12-28T10:32:52.263Z,1033.86
2016-12-28T10:34:02.228Z,1033.87
2016-12-28T10:35:12.185Z,1033.87
2016-12-28T10:36:22.457Z,1033.92
2016-12-28T10:37:32.419Z,1033.82
2016-12-28T10:38:42.381Z,1033.86
2016-12-28T10:39:52.657Z,1033.78
2016-12-28T10:41:02.621Z,1033.8
2016-12-28T10:42:12.593Z,1033.83
2016-12-28T10:43:22.563Z,1033.81
2016-12-28T10:44:32.839Z,1033.85
2016-12-28T10:45:42.809Z,1033.82
2016-12-28T10:46:52.465Z,1033.8
2016-12-28T10:48:02.109Z,1033.82
2016-12-28T10:49:12.084Z,1033.8
2016-12-28T10:50:22.346Z,1033.75
2016-12-28T10:51:32.304Z,1033.74
2016-12-28T10:52:42.568Z,1033.76
2016-12-28T10:53:52.839Z,1033.71
2016-12-28T10:55:03.115Z,1033.69
2016-12-28T10:56:12.760Z,1033.67
2016-12-28T10:57:22.715Z,1033.68
2016-12-28T10:58:32.987Z,1033.69
2016-12-28T10:59:42.677Z,1033.64
2016-12-28T11:00:52.939Z,1033.66
2016-12-28T11:02:03.214Z,1033.62
2016-12-28T11:03:13.471Z,1033.64
2016-12-28T11:04:23.750Z,1033.58
2016-12-28T11:05:33.090Z,1033.57
2016-12-28T11:06:43.354Z,1033.53
2016-12-28T11:07:53.311Z,1033.54
2016-12-28T11:09:03.263Z,1033.56
2016-12-28T11:10:13.542Z,1033.56
2016-12-28T11:11:23.792Z,1033.6
2016-12-28T11:12:33.782Z,1033.54
2016-12-28T11:13:43.734Z,1033.62
2016-12-28T11:14:53.987Z,1033.64
2016-12-28T11:16:03.958Z,1033.7
2016-12-28T11:17:13.907Z,1033.67
2016-12-28T11:18:24.179Z,1033.67
2016-12-28T11:19:34.138Z,1033.65
2016-12-28T11:20:43.785Z,1033.67
2016-12-28T11:21:53.130Z,1033.62
2016-12-28T11:23:03.095Z,1033.7
2016-12-28T11:24:13.368Z,1033.62
2016-12-28T11:25:23.632Z,1033.63
2016-12-28T11:26:33.606Z,1033.59
2016-12-28T11:27:43.565Z,1033.62
2016-12-28T11:28:53.831Z,1033.56
2016-12-28T11:30:03.778Z,1033.6
2016-12-28T11:31:13.723Z,1033.66
2016-12-28T11:32:23.691Z,1033.65
2016-12-28T11:33:33.637Z,1033.66
2016-12-28T11:34:43.583Z,1033.67
2016-12-28T11:35:53.846Z,1033.65
2016-12-28T11:37:04.109Z,1033.69
2016-12-28T11:38:14.365Z,1033.66
2016-12-28T11:39:24.311Z,1033.69
2016-12-28T11:40:34.273Z,1033.72
2016-12-28T11:41:44.248Z,1033.74
2016-12-28T11:42:54.212Z,1033.75
2016-12-28T11:44:04.166Z,1033.74
2016-12-28T11:45:13.820Z,1033.68
2016-12-28T11:46:24.089Z,1033.69
2016-12-28T11:47:33.732Z,1033.65
2016-12-28T11:48:43.684Z,1033.67
2016-12-28T11:49:53.655Z,1033.69
2016-12-28T11:52:13.915Z,1033.71
2016-12-28T11:53:24.196Z,1033.7
2016-12-28T11:54:34.486Z,1033.72
2016-12-28T11:55:44.416Z,1033.72
2016-12-28T11:56:54.311Z,1033.7
2016-12-28T11:58:04.985Z,1033.77
2016-12-28T11:59:15.659Z,1033.72
2016-12-28T12:00:25.560Z,1033.68
2016-12-28T12:01:36.257Z,1033.67
2016-12-28T12:02:46.949Z,1033.67
2016-12-28T12:03:57.250Z,1033.7
2016-12-28T12:05:07.977Z,1033.71
2016-12-28T12:06:17.890Z,1033.75
2016-12-28T12:07:28.588Z,1033.75
2016-12-28T12:08:38.911Z,1033.71
2016-12-28T12:09:49.292Z,1033.69
2016-12-28T12:10:59.581Z,1033.71
2016-12-28T12:12:09.866Z,1033.7
2016-12-28T12:13:19.758Z,1033.69
2016-12-28T12:14:29.664Z,1033.67
2016-12-28T12:15:39.569Z,1033.65
2016-12-28T12:16:49.870Z,1033.61
2016-12-28T12:17:59.768Z,1033.62
2016-12-28T12:19:09.278Z,1033.6
2016-12-28T12:20:19.193Z,1033.53
2016-12-28T12:21:29.477Z,1033.51
2016-12-28T12:22:39.756Z,1033.42
2016-12-28T12:23:50.053Z,1033.38
2016-12-28T12:25:00.749Z,1033.41
2016-12-28T12:26:11.440Z,1033.44
2016-12-28T12:27:22.176Z,1033.46
2016-12-28T12:28:32.476Z,1033.47
2016-12-28T12:29:43.175Z,1033.54
2016-12-28T12:30:53.856Z,1033.53
2016-12-28T12:32:04.532Z,1033.53
2016-12-28T12:33:15.243Z,1033.57
2016-12-28T12:34:25.939Z,1033.61
2016-12-28T12:35:36.180Z,1033.61
2016-12-28T12:36:46.856Z,1033.67
2016-12-28T12:37:57.547Z,1033.63
2016-12-28T12:39:08.225Z,1033.63
2016-12-28T12:40:18.924Z,1033.61
2016-12-28T12:41:29.635Z,1033.65
2016-12-28T12:42:39.932Z,1033.68
2016-12-28T12:43:50.618Z,1033.63
2016-12-28T12:45:01.296Z,1033.66
2016-12-28T12:46:11.988Z,1033.65
2016-12-28T12:47:22.673Z,1033.6
2016-12-28T12:48:33.354Z,1033.55
2016-12-28T12:49:44.050Z,1033.58
2016-12-28T12:50:54.728Z,1033.59
2016-12-28T12:52:04.629Z,1033.54
2016-12-28T12:53:14.917Z,1033.45
2016-12-28T12:54:24.811Z,1033.53
2016-12-28T12:55:35.525Z,1033.53
2016-12-28T12:56:46.211Z,1033.52
2016-12-28T12:57:56.893Z,1033.51
2016-12-28T12:59:07.181Z,1033.51
2016-12-28T13:00:17.859Z,1033.49
2016-12-28T13:01:28.576Z,1033.49
2016-12-28T13:02:38.874Z,1033.52
2016-12-28T13:03:49.166Z,1033.6
2016-12-28T13:04:59.864Z,1033.67
2016-12-28T13:06:09.764Z,1033.72
2016-12-28T13:07:20.046Z,1033.69
2016-12-28T13:08:30.737Z,1033.78
2016-12-28T13:09:41.055Z,1033.71
2016-12-28T13:10:51.758Z,1033.76
2016-12-28T13:12:01.652Z,1033.75
2016-12-28T13:13:11.946Z,1033.75
2016-12-28T13:14:22.631Z,1033.77
2016-12-28T13:15:33.313Z,1033.77
2016-12-28T13:16:43.220Z,1033.78
2016-12-28T13:17:53.941Z,1033.79
2016-12-28T13:19:04.258Z,1033.81
2016-12-28T13:20:13.779Z,1033.82
2016-12-28T13:21:24.455Z,1033.85
2016-12-28T13:22:35.143Z,1033.79
2016-12-28T13:23:45.829Z,1033.85
2016-12-28T13:24:56.129Z,1033.79
2016-12-28T13:26:06.823Z,1033.86
2016-12-28T13:27:17.512Z,1033.82
2016-12-28T13:28:27.831Z,1033.89
2016-12-28T13:29:38.519Z,1033.86
2016-12-28T13:30:48.810Z,1033.9
2016-12-28T13:31:59.521Z,1033.88
2016-12-28T13:33:09.831Z,1033.91
2016-12-28T13:34:19.719Z,1033.92
2016-12-28T13:35:29.617Z,1033.96
2016-12-28T13:36:40.305Z,1033.96
2016-12-28T13:37:50.999Z,1033.92
2016-12-28T13:39:01.678Z,1033.86
2016-12-28T13:40:11.975Z,1033.9
2016-12-28T13:41:22.268Z,1033.9
2016-12-28T13:42:32.286Z,1033.89
2016-12-28T13:43:42.581Z,1033.96
2016-12-28T13:44:52.871Z,1033.93
2016-12-28T13:46:03.556Z,1033.91
2016-12-28T13:47:13.850Z,1033.94
2016-12-28T13:48:24.529Z,1033.89
2016-12-28T13:49:34.845Z,1033.99
2016-12-28T13:50:45.540Z,1033.97
2016-12-28T13:51:55.848Z,1033.99
2016-12-28T13:53:06.535Z,1034.02
2016-12-28T13:54:17.215Z,1034.04
2016-12-28T13:55:27.514Z,1034.06
2016-12-28T13:56:38.218Z,1034.03
2016-12-28T13:57:48.909Z,1034.05
2016-12-28T13:58:59.625Z,1034.06
2016-12-28T14:00:10.301Z,1034.05
2016-12-28T14:01:20.974Z,1034.1
2016-12-28T14:02:31.276Z,1034.04
2016-12-28T14:03:41.574Z,1034.05
2016-12-28T14:04:52.262Z,1034.08
2016-12-28T14:06:02.557Z,1034.07
2016-12-28T14:07:12.850Z,1034.11
2016-12-28T14:08:23.144Z,1034.1
2016-12-28T14:09:33.446Z,1034.09
2016-12-28T14:10:44.134Z,1034.05
2016-12-28T14:11:54.431Z,1034.05